»·PEaware :: CAX352 KSJC-KSNA

CAX352 :: KSJC-KSNA

FLIGHT INFORMATION

Flight Status: Arrived
Operator:
California Airlines (website)
More flights by this operator :: More flights under this callsign
Pilot: Dan K. (1691)
Aircraft: BOEING 737-800
(B738)
More flights by this aircraft type
Origin: KSJC Mineta San Jose Intl
United States
Destination: KSNA John Wayne-Orange Co
United States
More flights between these airports :: More routes between these airports
Route: +TECKY3 EBAYE BURGL FLW GOONA OHSEA1
File this flight plan on PilotEdge
Remarks:
Altitude:
(Current/Filed)
35,000ft
Speed:
(Current/Filed)
445kts
Departed: 30-Sep-17 05:41 PM
Arrived: 30-Sep-17 06:43 PM
Distance/Time
Traveled:
297nm/1:02
Distance/Time
To Go:
Arrived

Flight Plot

Page will automatically refresh every two minutes.


Map Options




Map Legend


Flown Route
Filed Route
Departure Airport
Arrival Airport
Navaid (VOR, NDB)
Fix

Horizontal Profiles

Position Reports

Time Latitude Longitude Heading Altitude Ground
Speed
30-Sep-17 17:17 37.371481 -121.931539 178 69ft 0kts
30-Sep-17 17:18 37.371481 -121.931539 178 69ft 0kts
30-Sep-17 17:19 37.371481 -121.931539 178 69ft 0kts
30-Sep-17 17:20 37.371481 -121.931539 178 69ft 0kts
30-Sep-17 17:21 37.371481 -121.931539 178 69ft 0kts
30-Sep-17 17:22 37.371481 -121.931539 178 69ft 0kts
30-Sep-17 17:23 37.371481 -121.931539 178 69ft 0kts
30-Sep-17 17:24 37.371481 -121.931539 178 69ft 0kts
30-Sep-17 17:25 37.371481 -121.931539 178 69ft 0kts
30-Sep-17 17:26 37.371481 -121.931539 178 69ft 0kts
30-Sep-17 17:27 37.371481 -121.931539 178 69ft 0kts
30-Sep-17 17:28 37.371481 -121.931539 178 69ft 0kts
30-Sep-17 17:29 37.371481 -121.931539 178 69ft 0kts
30-Sep-17 17:30 37.371481 -121.931539 178 69ft 0kts
30-Sep-17 17:31 37.371481 -121.931539 178 69ft 0kts
30-Sep-17 17:32 37.371481 -121.931539 178 69ft 0kts
30-Sep-17 17:33 37.371500 -121.931539 179 70ft 1kts
30-Sep-17 17:34 37.371932 -121.931981 108 70ft 2kts
30-Sep-17 17:35 37.371985 -121.932666 90 70ft 2kts
30-Sep-17 17:36 37.372176 -121.933309 141 69ft 2kts
30-Sep-17 17:37 37.372279 -121.933424 137 69ft 0kts
30-Sep-17 17:38 37.372279 -121.933424 137 69ft 0kts
30-Sep-17 17:39 37.371269 -121.933426 169 69ft 7kts
30-Sep-17 17:40 37.368524 -121.931482 139 70ft 24kts
30-Sep-17 17:41 37.363223 -121.925670 139 69ft 27kts
30-Sep-17 17:42 37.357225 -121.919094 138 69ft 24kts
30-Sep-17 17:43 37.354294 -121.915853 141 70ft 7kts
30-Sep-17 17:44 37.352684 -121.914982 226 70ft 6kts
30-Sep-17 17:45 37.356990 -121.920507 318 70ft 102kts
30-Sep-17 17:46 37.390066 -121.956753 317 1820ft 184kts
30-Sep-17 17:47 37.436909 -121.946158 79 3990ft 258kts
30-Sep-17 17:48 37.395561 -121.869962 136 6810ft 293kts
30-Sep-17 17:49 37.337142 -121.799087 134 9897ft 306kts
30-Sep-17 17:50 37.269750 -121.722083 137 12087ft 347kts
30-Sep-17 17:51 37.197354 -121.640509 137 14844ft 361kts
30-Sep-17 17:52 37.121533 -121.554994 137 17687ft 380kts
30-Sep-17 17:53 37.041118 -121.465469 139 20330ft 400kts
30-Sep-17 17:54 36.956207 -121.375638 139 22853ft 415kts
30-Sep-17 17:55 36.869134 -121.283328 140 24799ft 438kts
30-Sep-17 17:56 36.775892 -121.184411 140 27299ft 441kts
30-Sep-17 17:57 36.684126 -121.087059 140 29676ft 436kts
30-Sep-17 17:58 36.592613 -120.990450 142 31644ft 432kts
30-Sep-17 17:59 36.500174 -120.897514 142 33322ft 430kts
30-Sep-17 18:00 36.407812 -120.804789 142 34790ft 427kts
30-Sep-17 18:01 36.314233 -120.710739 142 34971ft 448kts
30-Sep-17 18:02 36.214907 -120.610759 142 34971ft 475kts
30-Sep-17 18:03 36.111165 -120.506251 142 34956ft 484kts
30-Sep-17 18:04 36.007206 -120.401496 142 34957ft 484kts
30-Sep-17 18:05 35.904881 -120.298254 142 34951ft 484kts
30-Sep-17 18:06 35.818714 -120.222777 152 34960ft 482kts
30-Sep-17 18:07 35.704730 -120.137860 151 34951ft 482kts
30-Sep-17 18:08 35.584473 -120.072712 165 34956ft 477kts
30-Sep-17 18:09 35.460289 -120.021371 164 34961ft 476kts
30-Sep-17 18:10 35.336147 -119.968971 164 34977ft 476kts
30-Sep-17 18:11 35.212384 -119.916698 164 34973ft 476kts
30-Sep-17 18:12 35.090905 -119.855420 146 34968ft 482kts
30-Sep-17 18:13 34.991728 -119.745652 137 34957ft 483kts
30-Sep-17 18:14 34.898472 -119.634588 136 34932ft 479kts
30-Sep-17 18:15 34.810363 -119.529461 136 34800ft 481kts
30-Sep-17 18:16 34.715803 -119.416585 136 32820ft 478kts
30-Sep-17 18:17 34.632648 -119.317094 136 31129ft 485kts
30-Sep-17 18:18 34.537392 -119.202827 136 29172ft 490kts
30-Sep-17 18:19 34.444707 -119.093767 137 27236ft 475kts
30-Sep-17 18:20 34.355555 -118.991071 138 25153ft 431kts
30-Sep-17 18:21 34.283971 -118.909485 138 23511ft 424kts
30-Sep-17 18:22 34.195264 -118.825174 164 21511ft 400kts
30-Sep-17 18:23 34.074209 -118.784464 165 19240ft 386kts
30-Sep-17 18:24 33.990722 -118.752577 165 17581ft 375kts
30-Sep-17 18:25 33.881422 -118.710356 165 15352ft 363kts
30-Sep-17 18:26 33.802881 -118.680059 165 13698ft 354kts
30-Sep-17 18:27 33.711107 -118.645739 166 13013ft 347kts
30-Sep-17 18:28 33.622998 -118.613732 157 10783ft 317kts
30-Sep-17 18:29 33.564245 -118.541156 127 9316ft 296kts
30-Sep-17 18:30 33.527501 -118.454452 101 8299ft 299kts
30-Sep-17 18:31 33.520715 -118.356328 82 7130ft 297kts
30-Sep-17 18:32 33.539896 -118.268171 70 6010ft 290kts
30-Sep-17 18:33 33.567254 -118.186260 61 5001ft 282kts
30-Sep-17 18:34 33.603742 -118.113550 57 4970ft 237kts
30-Sep-17 18:35 33.640222 -118.046566 57 4991ft 242kts
30-Sep-17 18:36 33.676968 -117.980186 56 4994ft 242kts
30-Sep-17 18:37 33.729759 -117.932403 27 4997ft 242kts
30-Sep-17 18:38 33.787736 -117.893670 27 4997ft 241kts
30-Sep-17 18:39 33.845371 -117.854989 27 4996ft 240kts
30-Sep-17 18:40 33.894932 -117.805083 75 4757ft 242kts
30-Sep-17 18:41 33.882143 -117.733356 162 3737ft 217kts
30-Sep-17 18:42 33.835026 -117.759077 228 2988ft 185kts
30-Sep-17 18:43 33.796037 -117.792232 209 2585ft 160kts
30-Sep-17 18:44 33.760479 -117.815002 208 1806ft 143kts
30-Sep-17 18:45 33.726742 -117.836440 207 1071ft 136kts
30-Sep-17 18:46 33.693374 -117.857500 207 401ft 136kts
30-Sep-17 18:47 33.669104 -117.873005 207 64ft 18kts
30-Sep-17 18:48 33.667582 -117.872643 69 64ft 0kts
30-Sep-17 18:49 33.669260 -117.870782 40 64ft 20kts
30-Sep-17 18:50 33.672958 -117.867442 48 63ft 9kts
30-Sep-17 18:51 33.676323 -117.865089 28 63ft 10kts
30-Sep-17 18:52 33.676850 -117.864002 117 63ft 2kts
30-Sep-17 18:53 33.676835 -117.863968 117 63ft 0kts
30-Sep-17 18:54 33.676835 -117.863968 117 63ft 0kts

Navigation Log

Ident Type
Flight plan parsing failed, navigation log unavailable